createdAt,value
2018-02-24T00:00:51.874Z,7.40
2018-02-24T00:02:55.061Z,6.53
2018-02-24T00:04:58.220Z,6.90
2018-02-24T00:07:01.386Z,7.10
2018-02-24T00:09:04.568Z,6.70
2018-02-24T00:11:08.517Z,7.55
2018-02-24T00:13:12.020Z,7.10
2018-02-24T00:15:15.176Z,7.33
2018-02-24T00:17:18.333Z,6.83
2018-02-24T00:19:21.527Z,7.77
2018-02-24T00:21:25.489Z,7.40
2018-02-24T00:23:28.676Z,7.73
2018-02-24T00:25:31.834Z,6.83
2018-02-24T00:27:36.131Z,7.40
2018-02-24T00:29:39.322Z,8.02
2018-02-24T00:31:42.505Z,7.47
2018-02-24T00:33:46.433Z,7.43
2018-02-24T00:35:50.389Z,8.47
2018-02-24T00:37:53.577Z,7.70
2018-02-24T00:39:57.500Z,8.30
2018-02-24T00:42:01.408Z,7.00
2018-02-24T00:44:04.896Z,8.03
2018-02-24T00:46:08.153Z,8.03
2018-02-24T00:48:12.074Z,7.87
2018-02-24T00:50:15.917Z,7.55
2018-02-24T00:52:19.081Z,8.43
2018-02-24T00:54:22.268Z,7.63
2018-02-24T00:56:25.462Z,7.93
2018-02-24T00:58:28.615Z,7.83
2018-02-24T01:00:31.777Z,8.77
2018-02-24T01:02:34.959Z,8.47
2018-02-24T01:04:38.122Z,8.47
2018-02-24T01:06:41.306Z,8.05
2018-02-24T01:08:44.489Z,7.90
2018-02-24T01:10:47.677Z,8.17
2018-02-24T01:12:51.597Z,8.10
2018-02-24T01:14:56.681Z,8.13
2018-02-24T01:16:59.996Z,7.90
2018-02-24T01:19:03.177Z,9.13
2018-02-24T01:21:07.130Z,8.93
2018-02-24T01:23:10.321Z,10.07
2018-02-24T01:25:13.484Z,8.83
2018-02-24T01:27:17.009Z,8.60
2018-02-24T01:29:20.602Z,9.03
2018-02-24T01:31:23.858Z,8.73
2018-02-24T01:33:27.798Z,8.38
2018-02-24T01:35:30.953Z,8.93
2018-02-24T01:37:34.141Z,8.93
2018-02-24T01:39:37.346Z,7.97
2018-02-24T01:41:40.532Z,8.80
2018-02-24T01:43:43.724Z,8.20
2018-02-24T01:45:46.908Z,8.07
2018-02-24T01:47:50.108Z,8.43
2018-02-24T01:49:53.297Z,9.00
2018-02-24T01:51:56.453Z,8.67
2018-02-24T01:54:00.380Z,8.87
2018-02-24T01:56:04.344Z,8.37
2018-02-24T01:58:07.532Z,9.83
2018-02-24T02:00:12.383Z,8.80
2018-02-24T02:02:16.342Z,9.27
2018-02-24T02:04:20.467Z,8.67
2018-02-24T02:06:24.518Z,9.43
2018-02-24T02:08:28.938Z,8.63
2018-02-24T02:10:32.753Z,8.90
2018-02-24T02:12:37.299Z,7.77
2018-02-24T02:14:41.222Z,8.30
2018-02-24T02:16:45.484Z,8.77
2018-02-24T02:18:50.126Z,8.77
2018-02-24T02:20:54.604Z,8.53
2018-02-24T02:22:59.473Z,8.80
2018-02-24T02:25:03.415Z,8.73
2018-02-24T02:27:08.825Z,8.50
2018-02-24T02:29:12.681Z,9.00
2018-02-24T02:31:16.710Z,8.52
2018-02-24T02:33:21.226Z,10.10
2018-02-24T02:35:25.018Z,9.43
2018-02-24T02:37:30.147Z,9.43
2018-02-24T02:39:35.613Z,10.00
2018-02-24T02:41:40.910Z,9.20
2018-02-24T02:43:44.792Z,8.55
2018-02-24T02:45:49.573Z,8.93
2018-02-24T02:47:54.148Z,9.30
2018-02-24T02:49:58.440Z,9.63
2018-02-24T02:52:03.556Z,9.43
2018-02-24T02:54:07.614Z,10.80
2018-02-24T02:56:11.857Z,10.45
2018-02-24T02:58:15.821Z,9.97
2018-02-24T03:00:21.870Z,10.38
2018-02-24T03:02:26.636Z,10.33
2018-02-24T03:04:32.653Z,10.75
2018-02-24T03:06:37.771Z,9.80
2018-02-24T03:08:43.603Z,9.95
2018-02-24T03:10:48.120Z,9.63
2018-02-24T03:12:54.649Z,10.20
2018-02-24T03:14:59.695Z,10.00
2018-02-24T03:17:04.602Z,9.90
2018-02-24T03:19:09.716Z,9.93
2018-02-24T03:21:13.048Z,10.73
2018-02-24T03:23:16.977Z,10.07
2018-02-24T03:25:21.384Z,10.57
2018-02-24T03:27:24.574Z,9.00
2018-02-24T03:29:27.740Z,10.13
2018-02-24T03:31:30.970Z,10.03
2018-02-24T03:33:34.141Z,10.53
2018-02-24T03:35:38.094Z,9.80
2018-02-24T03:37:41.263Z,8.93
2018-02-24T03:39:44.429Z,10.57
2018-02-24T03:41:47.613Z,9.60
2018-02-24T03:43:50.796Z,9.97
2018-02-24T03:46:00.274Z,9.18
2018-02-24T03:48:03.462Z,10.30
2018-02-24T03:50:07.389Z,10.50
2018-02-24T03:52:10.576Z,10.27
2018-02-24T03:54:13.757Z,9.93
2018-02-24T03:56:16.920Z,10.30
2018-02-24T03:58:21.992Z,9.83
2018-02-24T04:00:25.185Z,10.37
2018-02-24T04:02:28.343Z,9.43
2018-02-24T04:04:31.536Z,10.20
2018-02-24T04:06:34.724Z,10.57
2018-02-24T04:08:37.895Z,10.47
2018-02-24T04:10:41.815Z,9.98
2018-02-24T04:12:45.776Z,10.47
2018-02-24T04:14:48.941Z,10.17
2018-02-24T04:16:52.901Z,9.40
2018-02-24T04:18:56.061Z,10.67
2018-02-24T04:20:59.256Z,9.63
2018-02-24T04:23:02.455Z,9.97
2018-02-24T04:25:05.613Z,10.23
2018-02-24T04:27:09.536Z,11.07
2018-02-24T04:29:13.492Z,9.90
2018-02-24T04:31:16.837Z,10.40
2018-02-24T04:33:20.736Z,10.43
2018-02-24T04:35:23.905Z,10.40
2018-02-24T04:37:27.882Z,9.40
2018-02-24T04:39:31.066Z,11.00
2018-02-24T04:41:34.220Z,9.77
2018-02-24T04:43:37.373Z,9.77
2018-02-24T04:45:40.567Z,9.70
2018-02-24T04:47:44.517Z,10.20
2018-02-24T04:49:47.690Z,10.02
2018-02-24T04:51:50.848Z,10.40
2018-02-24T04:53:54.067Z,10.10
2018-02-24T04:55:57.239Z,10.13
2018-02-24T04:58:01.833Z,10.48
2018-02-24T05:00:08.510Z,10.47
2018-02-24T05:02:13.435Z,11.17
2018-02-24T05:04:18.423Z,10.70
2018-02-24T05:06:25.873Z,11.13
2018-02-24T05:08:30.791Z,10.27
2018-02-24T05:10:36.505Z,10.47
2018-02-24T05:12:41.810Z,10.40
2018-02-24T05:14:47.775Z,11.13
2018-02-24T05:16:53.711Z,10.43
2018-02-24T05:18:57.021Z,10.13
2018-02-24T05:21:00.199Z,10.33
2018-02-24T05:23:04.786Z,10.18
2018-02-24T05:25:07.950Z,10.77
2018-02-24T05:27:11.112Z,10.20
2018-02-24T05:29:14.314Z,11.13
2018-02-24T05:31:17.484Z,28.63
2018-02-24T05:33:20.896Z,16.77
2018-02-24T05:35:25.094Z,11.98
2018-02-24T05:37:29.048Z,11.65
2018-02-24T05:39:32.237Z,11.27
2018-02-24T05:41:36.165Z,10.63
2018-02-24T05:43:39.331Z,10.73
2018-02-24T05:45:42.529Z,10.20
2018-02-24T05:47:46.012Z,11.43
2018-02-24T05:49:49.201Z,10.60
2018-02-24T05:51:53.156Z,11.40
2018-02-24T05:53:56.352Z,10.93
2018-02-24T05:55:59.506Z,11.13
2018-02-24T05:58:02.676Z,11.33
2018-02-24T06:00:05.874Z,18.20
2018-02-24T06:02:09.857Z,11.85
2018-02-24T06:04:13.045Z,10.97
2018-02-24T06:06:16.239Z,12.25
2018-02-24T06:08:19.416Z,11.37
2018-02-24T06:10:22.600Z,10.93
2018-02-24T06:12:26.560Z,11.23
2018-02-24T06:14:29.748Z,10.27
2018-02-24T06:16:33.685Z,12.80
2018-02-24T06:18:37.206Z,12.57
2018-02-24T06:20:40.372Z,12.13
2018-02-24T06:22:43.561Z,12.15
2018-02-24T06:24:47.841Z,13.10
2018-02-24T06:26:51.020Z,12.20
2018-02-24T06:28:54.217Z,13.03
2018-02-24T06:30:57.412Z,12.43
2018-02-24T06:33:00.662Z,12.07
2018-02-24T06:35:05.721Z,12.97
2018-02-24T06:37:09.657Z,12.47
2018-02-24T06:39:12.848Z,14.40
2018-02-24T06:41:16.769Z,12.30
2018-02-24T06:43:20.730Z,12.00
2018-02-24T06:45:23.892Z,11.23
2018-02-24T06:47:27.086Z,11.90
2018-02-24T06:49:30.247Z,11.12
2018-02-24T06:51:33.433Z,12.47
2018-02-24T06:53:37.359Z,11.87
2018-02-24T06:55:41.325Z,11.43
2018-02-24T06:57:44.484Z,11.37
2018-02-24T06:59:48.439Z,12.03
2018-02-24T07:01:53.298Z,10.97
2018-02-24T07:03:56.462Z,11.60
2018-02-24T07:06:00.412Z,12.67
2018-02-24T07:08:03.608Z,13.13
2018-02-24T07:10:07.555Z,12.50
2018-02-24T07:12:10.743Z,12.70
2018-02-24T07:14:14.706Z,13.13
2018-02-24T07:16:17.965Z,13.37
2018-02-24T07:18:21.909Z,13.80
2018-02-24T07:20:25.124Z,13.03
2018-02-24T07:22:28.305Z,15.03
2018-02-24T07:24:32.240Z,14.52
2018-02-24T07:26:36.178Z,13.67
2018-02-24T07:28:39.378Z,13.57
2018-02-24T07:30:42.574Z,13.03
2018-02-24T07:32:46.507Z,13.73
2018-02-24T07:34:50.462Z,12.93
2018-02-24T07:36:53.647Z,13.53
2018-02-24T07:38:56.832Z,12.93
2018-02-24T07:41:00.025Z,14.23
2018-02-24T07:43:03.228Z,13.32
2018-02-24T07:45:06.409Z,13.63
2018-02-24T07:47:09.577Z,14.67
2018-02-24T07:49:13.536Z,13.98
2018-02-24T07:51:16.699Z,15.43
2018-02-24T07:53:20.629Z,16.10
2018-02-24T07:55:24.609Z,15.20
2018-02-24T07:57:27.821Z,15.00
2018-02-24T07:59:31.043Z,15.93
2018-02-24T08:01:34.228Z,15.88
2018-02-24T08:03:37.392Z,16.30
2018-02-24T08:05:41.326Z,14.37
2018-02-24T08:07:45.308Z,13.67
2018-02-24T08:09:48.511Z,14.25
2018-02-24T08:11:51.677Z,15.73
2018-02-24T08:13:54.837Z,14.57
2018-02-24T08:15:58.817Z,13.17
2018-02-24T08:18:01.978Z,14.17
2018-02-24T08:20:05.173Z,14.07
2018-02-24T08:22:08.339Z,18.63
2018-02-24T08:24:13.092Z,15.18
2018-02-24T08:26:16.260Z,17.00
2018-02-24T08:28:20.218Z,16.17
2018-02-24T08:30:23.419Z,12.10
2018-02-24T08:32:26.602Z,13.37
2018-02-24T08:34:30.532Z,16.57
2018-02-24T08:36:34.497Z,12.37
2018-02-24T08:38:37.686Z,12.30
2018-02-24T08:40:41.000Z,11.10
2018-02-24T08:42:44.165Z,12.83
2018-02-24T08:44:49.308Z,8.90
2018-02-24T08:46:52.924Z,10.27
2018-02-24T08:48:56.112Z,9.73
2018-02-24T08:50:59.265Z,7.87
2018-02-24T08:53:03.198Z,7.53
2018-02-24T08:55:07.145Z,6.37
2018-02-24T08:57:10.296Z,9.13
2018-02-24T08:59:13.464Z,6.73
2018-02-24T09:01:17.507Z,5.67
2018-02-24T09:03:20.985Z,10.27
2018-02-24T09:05:24.930Z,5.90
2018-02-24T09:07:28.116Z,5.78
2018-02-24T09:09:32.300Z,7.77
2018-02-24T09:11:35.450Z,5.83
2018-02-24T09:13:38.608Z,5.73
2018-02-24T09:15:43.589Z,5.70
2018-02-24T09:17:46.778Z,5.20
2018-02-24T09:19:49.969Z,5.07
2018-02-24T09:21:53.122Z,6.00
2018-02-24T09:23:57.053Z,6.77
2018-02-24T09:26:01.009Z,6.63
2018-02-24T09:28:04.189Z,6.03
2018-02-24T09:30:08.100Z,5.37
2018-02-24T09:32:12.013Z,5.17
2018-02-24T09:34:15.585Z,4.13
2018-02-24T09:36:18.772Z,5.50
2018-02-24T09:38:21.934Z,4.57
2018-02-24T09:40:25.908Z,4.40
2018-02-24T09:42:29.501Z,4.83
2018-02-24T09:44:33.651Z,4.87
2018-02-24T09:46:36.811Z,4.57
2018-02-24T09:48:39.957Z,4.47
2018-02-24T09:50:43.902Z,5.05
2018-02-24T09:52:47.078Z,4.93
2018-02-24T09:54:50.998Z,5.30
2018-02-24T09:56:55.301Z,4.40
2018-02-24T09:58:58.776Z,4.62
2018-02-24T10:01:01.925Z,4.20
2018-02-24T10:03:05.075Z,4.70
2018-02-24T10:05:09.024Z,4.83
2018-02-24T10:07:12.184Z,4.30
2018-02-24T10:09:17.339Z,4.35
2018-02-24T10:11:20.811Z,9.18
2018-02-24T10:13:23.997Z,5.12
2018-02-24T10:15:27.180Z,4.33
2018-02-24T10:17:30.348Z,4.10
2018-02-24T10:19:33.503Z,4.63
2018-02-24T10:21:38.167Z,4.53
2018-02-24T10:23:41.314Z,4.47
2018-02-24T10:25:44.476Z,4.50
2018-02-24T10:27:47.664Z,4.30
2018-02-24T10:29:51.914Z,4.60
2018-02-24T10:31:55.053Z,4.53
2018-02-24T10:33:59.098Z,4.53
2018-02-24T10:36:02.767Z,5.27
2018-02-24T10:38:05.949Z,4.77
2018-02-24T10:40:09.173Z,4.82
2018-02-24T10:42:13.217Z,4.67
2018-02-24T10:44:16.441Z,5.30
2018-02-24T10:46:20.392Z,5.20
2018-02-24T10:48:23.610Z,4.55
2018-02-24T10:50:26.835Z,5.00
2018-02-24T10:52:29.990Z,4.83
2018-02-24T10:54:33.197Z,4.30
2018-02-24T10:56:36.398Z,5.10
2018-02-24T10:58:40.061Z,5.20
2018-02-24T11:00:43.376Z,5.17
2018-02-24T11:02:46.537Z,5.47
2018-02-24T11:04:49.733Z,5.60
2018-02-24T11:06:53.223Z,5.18
2018-02-24T11:08:56.624Z,5.47
2018-02-24T11:13:10.243Z,5.63
2018-02-24T11:15:14.180Z,5.90
2018-02-24T11:17:17.384Z,6.15
2018-02-24T11:19:20.528Z,6.13
2018-02-24T11:21:23.721Z,6.13
2018-02-24T11:23:26.913Z,6.07
2018-02-24T11:25:30.057Z,5.95
2018-02-24T11:27:33.994Z,5.57
2018-02-24T11:29:37.169Z,5.53
2018-02-24T11:31:40.965Z,6.15
2018-02-24T11:33:44.118Z,6.07
2018-02-24T11:35:47.284Z,7.70
2018-02-24T11:37:50.471Z,6.77
2018-02-24T11:39:54.389Z,6.60
2018-02-24T11:41:57.594Z,5.50
2018-02-24T11:44:01.344Z,5.60
2018-02-24T11:46:05.286Z,5.33
2018-02-24T11:48:08.451Z,6.50
2018-02-24T11:50:11.694Z,5.20
2018-02-24T11:52:15.641Z,5.30
2018-02-24T11:54:18.893Z,5.57
2018-02-24T11:56:23.133Z,4.80
2018-02-24T11:58:27.583Z,5.70
2018-02-24T12:00:31.678Z,6.67
2018-02-24T12:02:35.720Z,5.03
2018-02-24T12:04:39.064Z,4.47
2018-02-24T12:06:42.342Z,4.70
2018-02-24T12:08:45.497Z,4.47
2018-02-24T12:10:48.654Z,4.57
2018-02-24T12:12:51.824Z,4.78
2018-02-24T12:14:55.006Z,4.53
2018-02-24T12:16:58.186Z,5.10
2018-02-24T12:19:02.053Z,4.85
2018-02-24T12:21:05.237Z,4.90
2018-02-24T12:23:08.394Z,5.30
2018-02-24T12:25:11.573Z,5.47
2018-02-24T12:27:14.749Z,5.13
2018-02-24T12:29:18.661Z,4.90
2018-02-24T12:31:22.344Z,5.35
2018-02-24T12:33:25.681Z,4.97
2018-02-24T12:35:28.898Z,4.80
2018-02-24T12:37:32.105Z,4.78
2018-02-24T12:39:35.263Z,6.30
2018-02-24T12:41:38.598Z,4.63
2018-02-24T12:43:42.690Z,4.65
2018-02-24T12:45:45.838Z,4.60
2018-02-24T12:47:49.020Z,4.80
2018-02-24T12:49:52.269Z,4.63
2018-02-24T12:51:55.450Z,4.43
2018-02-24T12:53:58.672Z,4.13
2018-02-24T12:56:02.996Z,4.20
2018-02-24T12:58:06.211Z,4.87
2018-02-24T13:00:10.213Z,4.60
2018-02-24T13:02:13.564Z,3.92
2018-02-24T13:04:16.802Z,4.50
2018-02-24T13:06:20.725Z,3.63
2018-02-24T13:08:24.641Z,4.10
2018-02-24T13:10:27.838Z,3.43
2018-02-24T13:12:31.021Z,3.60
2018-02-24T13:14:34.172Z,3.53
2018-02-24T13:16:37.316Z,3.73
2018-02-24T13:18:40.857Z,4.47
2018-02-24T13:20:44.108Z,3.70
2018-02-24T13:22:48.090Z,4.80
2018-02-24T13:24:51.410Z,3.87
2018-02-24T13:26:54.609Z,3.73
2018-02-24T13:28:57.786Z,4.10
2018-02-24T13:31:00.966Z,3.50
2018-02-24T13:33:04.621Z,3.20
2018-02-24T13:35:07.767Z,3.40
2018-02-24T13:37:10.944Z,3.28
2018-02-24T13:39:14.117Z,3.40
2018-02-24T13:41:18.039Z,3.00
2018-02-24T13:43:21.945Z,3.03
2018-02-24T13:45:25.411Z,3.67
2018-02-24T13:47:28.563Z,2.93
2018-02-24T13:49:31.720Z,2.87
2018-02-24T13:51:34.905Z,3.17
2018-02-24T13:53:38.821Z,2.70
2018-02-24T13:55:42.004Z,3.10
2018-02-24T13:57:45.177Z,3.00
2018-02-24T13:59:48.326Z,3.15
2018-02-24T14:01:51.493Z,2.80
2018-02-24T14:03:54.650Z,3.03
2018-02-24T14:05:57.847Z,2.70
2018-02-24T14:08:01.309Z,2.77
2018-02-24T14:10:04.463Z,2.73
2018-02-24T14:12:08.042Z,2.83
2018-02-24T14:14:11.192Z,3.10
2018-02-24T14:16:14.353Z,3.17
2018-02-24T14:18:17.525Z,3.00
2018-02-24T14:20:20.705Z,3.20
2018-02-24T14:22:23.848Z,3.17
2018-02-24T14:24:28.912Z,3.40
2018-02-24T14:26:32.845Z,2.97
2018-02-24T14:28:37.414Z,3.00
2018-02-24T14:30:41.094Z,3.90
2018-02-24T14:32:44.301Z,3.42
2018-02-24T14:34:48.533Z,3.80
2018-02-24T14:36:52.487Z,3.93
2018-02-24T14:38:55.662Z,3.67
2018-02-24T14:40:59.612Z,3.70
2018-02-24T14:43:02.818Z,4.13
2018-02-24T14:45:05.968Z,3.70
2018-02-24T14:47:09.147Z,3.27
2018-02-24T14:49:12.511Z,5.63
2018-02-24T14:51:15.681Z,4.93
2018-02-24T14:53:18.953Z,5.43
2018-02-24T14:55:22.864Z,4.23
2018-02-24T14:57:26.803Z,4.90
2018-02-24T14:59:30.740Z,6.10
2018-02-24T15:01:33.913Z,4.87
2018-02-24T15:03:37.098Z,4.37
2018-02-24T15:05:40.256Z,4.50
2018-02-24T15:07:44.199Z,4.93
2018-02-24T15:09:47.413Z,4.50
2018-02-24T15:11:50.766Z,4.57
2018-02-24T15:13:53.918Z,4.00
2018-02-24T15:15:57.100Z,4.07
2018-02-24T15:18:00.527Z,4.20
2018-02-24T15:20:04.450Z,4.80
2018-02-24T15:22:08.370Z,4.53
2018-02-24T15:24:12.324Z,4.40
2018-02-24T15:26:15.494Z,4.07
2018-02-24T15:28:18.642Z,4.03
2018-02-24T15:30:21.821Z,4.23
2018-02-24T15:32:25.731Z,4.97
2018-02-24T15:34:28.915Z,4.70
2018-02-24T15:36:32.059Z,5.40
2018-02-24T15:38:35.969Z,5.65
2018-02-24T15:40:39.928Z,5.73
2018-02-24T15:42:43.156Z,5.13
2018-02-24T15:44:46.292Z,4.93
2018-02-24T15:46:50.584Z,6.37
2018-02-24T15:48:53.725Z,4.00
2018-02-24T15:50:56.874Z,3.78
2018-02-24T15:53:00.895Z,5.00
2018-02-24T15:55:04.837Z,5.10
2018-02-24T15:57:08.754Z,3.97
2018-02-24T15:59:12.723Z,4.80
2018-02-24T16:01:15.875Z,6.68
2018-02-24T16:03:19.025Z,4.20
2018-02-24T16:05:22.224Z,3.50
2018-02-24T16:07:25.416Z,4.50
2018-02-24T16:09:28.600Z,3.77
2018-02-24T16:11:31.748Z,3.70
2018-02-24T16:13:34.924Z,4.00
2018-02-24T16:15:38.105Z,3.53
2018-02-24T16:17:41.585Z,3.53
2018-02-24T16:19:44.785Z,4.47
2018-02-24T16:21:47.944Z,4.85
2018-02-24T16:23:51.631Z,4.60
2018-02-24T16:25:54.831Z,8.10
2018-02-24T16:27:57.994Z,8.82
2018-02-24T16:30:01.155Z,10.53
2018-02-24T16:32:04.648Z,3.90
2018-02-24T16:34:07.825Z,3.40
2018-02-24T16:36:12.019Z,4.50
2018-02-24T16:38:15.514Z,3.53
2018-02-24T16:40:18.661Z,5.47
2018-02-24T16:42:21.796Z,4.23
2018-02-24T16:44:25.741Z,4.40
2018-02-24T16:46:28.929Z,4.53
2018-02-24T16:48:32.273Z,4.82
2018-02-24T16:50:35.473Z,10.90
2018-02-24T16:52:38.620Z,5.80
2018-02-24T16:54:42.533Z,5.33
2018-02-24T16:56:45.702Z,4.57
2018-02-24T16:58:49.629Z,4.83
2018-02-24T17:00:53.569Z,5.70
2018-02-24T17:02:56.741Z,4.43
2018-02-24T17:04:59.913Z,6.67
2018-02-24T17:07:03.089Z,4.40
2018-02-24T17:09:06.261Z,4.73
2018-02-24T17:11:09.409Z,3.95
2018-02-24T17:13:13.048Z,4.62
2018-02-24T17:15:16.201Z,12.87
2018-02-24T17:17:19.348Z,5.63
2018-02-24T17:19:22.534Z,7.23
2018-02-24T17:21:26.448Z,6.00
2018-02-24T17:23:30.364Z,4.50
2018-02-24T17:25:33.556Z,4.90
2018-02-24T17:27:36.709Z,3.90
2018-02-24T17:29:39.913Z,3.70
2018-02-24T17:31:43.054Z,4.70
2018-02-24T17:33:46.205Z,8.27
2018-02-24T17:35:50.167Z,5.43
2018-02-24T17:37:53.344Z,6.77
2018-02-24T17:39:57.256Z,4.97
2018-02-24T17:42:01.190Z,4.82
2018-02-24T17:44:04.629Z,4.17
2018-02-24T17:46:07.788Z,3.83
2018-02-24T17:48:10.936Z,3.77
2018-02-24T17:50:16.065Z,4.53
2018-02-24T17:52:19.322Z,3.80
2018-02-24T17:54:22.469Z,3.20
2018-02-24T17:56:25.670Z,10.20
2018-02-24T17:58:28.848Z,6.23
2018-02-24T18:00:31.989Z,4.73
2018-02-24T18:02:36.280Z,4.35
2018-02-24T18:04:39.434Z,4.23
2018-02-24T18:06:42.617Z,5.17
2018-02-24T18:08:45.801Z,22.70
2018-02-24T18:10:48.962Z,11.57
2018-02-24T18:12:52.117Z,9.97
2018-02-24T18:14:55.295Z,25.37
2018-02-24T18:16:58.441Z,39.07
2018-02-24T18:19:01.614Z,14.38
2018-02-24T18:21:05.552Z,8.70
2018-02-24T18:23:09.473Z,4.83
2018-02-24T18:25:13.396Z,8.10
2018-02-24T18:27:17.169Z,15.07
2018-02-24T18:29:20.321Z,8.57
2018-02-24T18:31:24.317Z,13.73
2018-02-24T18:33:27.464Z,8.10
2018-02-24T18:35:31.393Z,26.90
2018-02-24T18:37:35.336Z,13.53
2018-02-24T18:39:38.482Z,5.13
2018-02-24T18:41:41.675Z,10.23
2018-02-24T18:43:44.857Z,4.23
2018-02-24T18:45:48.011Z,3.97
2018-02-24T18:47:51.185Z,3.20
2018-02-24T18:49:54.360Z,3.40
2018-02-24T18:51:57.825Z,3.97
2018-02-24T18:54:01.337Z,5.63
2018-02-24T18:56:05.484Z,6.67
2018-02-24T18:58:09.008Z,5.43
2018-02-24T19:00:12.186Z,2.83
2018-02-24T19:02:15.332Z,3.57
2018-02-24T19:04:18.501Z,5.07
2018-02-24T19:06:21.670Z,2.50
2018-02-24T19:08:24.827Z,1.83
2018-02-24T19:10:28.018Z,3.03
2018-02-24T19:12:31.189Z,3.00
2018-02-24T19:14:35.128Z,3.25
2018-02-24T19:16:38.412Z,3.35
2018-02-24T19:18:42.389Z,3.37
2018-02-24T19:20:45.765Z,4.00
2018-02-24T19:22:50.236Z,3.83
2018-02-24T19:24:53.414Z,3.23
2018-02-24T19:26:56.669Z,2.37
2018-02-24T19:28:59.829Z,2.97
2018-02-24T19:31:03.854Z,2.47
2018-02-24T19:33:07.803Z,1.77
2018-02-24T19:35:10.988Z,2.00
2018-02-24T19:37:14.908Z,1.50
2018-02-24T19:39:20.347Z,1.95
2018-02-24T19:41:23.806Z,2.60
2018-02-24T19:43:27.188Z,2.20
2018-02-24T19:45:31.141Z,1.67
2018-02-24T19:47:34.425Z,1.92
2018-02-24T19:49:39.875Z,2.30
2018-02-24T19:51:43.157Z,2.97
2018-02-24T19:53:46.606Z,4.18
2018-02-24T19:55:50.548Z,3.50
2018-02-24T19:57:57.757Z,2.70
2018-02-24T20:00:06.742Z,2.90
2018-02-24T20:02:10.077Z,2.77
2018-02-24T20:04:13.269Z,2.90
2018-02-24T20:06:16.446Z,5.50
2018-02-24T20:08:20.056Z,31.62
2018-02-24T20:10:23.249Z,5.40
2018-02-24T20:12:26.407Z,2.10
2018-02-24T20:14:29.598Z,2.50
2018-02-24T20:16:32.777Z,2.30
2018-02-24T20:18:35.928Z,2.57
2018-02-24T20:20:41.904Z,1.60
2018-02-24T20:22:45.116Z,2.07
2018-02-24T20:24:48.356Z,2.33
2018-02-24T20:26:51.493Z,2.42
2018-02-24T20:28:54.665Z,2.35
2018-02-24T20:30:58.644Z,2.07
2018-02-24T20:33:01.979Z,1.97
2018-02-24T20:35:05.161Z,2.20
2018-02-24T20:37:08.301Z,2.12
2018-02-24T20:39:12.079Z,2.00
2018-02-24T20:41:15.308Z,1.67
2018-02-24T20:43:18.520Z,2.30
2018-02-24T20:45:21.744Z,2.93
2018-02-24T20:47:25.787Z,3.07
2018-02-24T20:49:29.792Z,2.30
2018-02-24T20:51:33.082Z,2.10
2018-02-24T20:53:36.453Z,3.03
2018-02-24T20:55:39.654Z,2.30
2018-02-24T20:57:43.761Z,2.60
2018-02-24T20:59:47.039Z,2.60
2018-02-24T21:01:50.744Z,2.07
2018-02-24T21:03:53.956Z,3.17
2018-02-24T21:05:57.445Z,3.60
2018-02-24T21:08:01.745Z,2.33
2018-02-24T21:10:05.085Z,2.10
2018-02-24T21:12:09.440Z,4.50
2018-02-24T21:14:12.789Z,9.97
2018-02-24T21:16:16.254Z,4.50
2018-02-24T21:18:19.596Z,5.20
2018-02-24T21:20:22.745Z,3.60
2018-02-24T21:22:25.979Z,4.80
2018-02-24T21:24:29.383Z,4.95
2018-02-24T21:26:32.604Z,2.20
2018-02-24T21:28:36.529Z,3.90
2018-02-24T21:30:39.872Z,2.60
2018-02-24T21:32:43.577Z,3.77
2018-02-24T21:34:47.839Z,3.90
2018-02-24T21:36:51.273Z,3.67
2018-02-24T21:38:55.406Z,4.70
2018-02-24T21:40:58.569Z,8.40
2018-02-24T21:43:02.838Z,7.25
2018-02-24T21:45:06.344Z,16.70
2018-02-24T21:47:09.662Z,12.23
2018-02-24T21:49:13.091Z,4.90
2018-02-24T21:51:16.482Z,4.00
2018-02-24T21:53:20.058Z,7.20
2018-02-24T21:55:23.909Z,13.10
2018-02-24T21:57:27.171Z,6.90
2018-02-24T21:59:31.346Z,7.25
2018-02-24T22:01:35.255Z,3.43
2018-02-24T22:03:38.768Z,3.12
2018-02-24T22:05:42.029Z,2.87
2018-02-24T22:07:45.232Z,9.03
2018-02-24T22:09:49.589Z,4.53
2018-02-24T22:11:53.949Z,3.70
2018-02-24T22:13:57.116Z,4.00
2018-02-24T22:16:01.993Z,2.87
2018-02-24T22:18:05.190Z,3.67
2018-02-24T22:20:09.104Z,3.90
2018-02-24T22:22:14.085Z,2.72
2018-02-24T22:24:17.229Z,5.28
2018-02-24T22:26:20.448Z,3.53
2018-02-24T22:28:23.730Z,5.27
2018-02-24T22:30:26.884Z,6.93
2018-02-24T22:32:32.264Z,5.25
2018-02-24T22:34:35.589Z,3.60
2018-02-24T22:36:38.737Z,3.53
2018-02-24T22:38:42.344Z,4.50
2018-02-24T22:40:46.746Z,4.10
2018-02-24T22:42:50.743Z,3.73
2018-02-24T22:44:54.346Z,5.10
2018-02-24T22:46:57.783Z,3.33
2018-02-24T22:49:02.635Z,4.03
2018-02-24T22:51:05.905Z,7.22
2018-02-24T22:53:15.994Z,9.73
2018-02-24T22:55:22.196Z,7.53
2018-02-24T22:57:27.669Z,4.47
2018-02-24T22:59:57.696Z,3.87
2018-02-24T23:02:00.844Z,8.03
2018-02-24T23:04:04.034Z,8.30
2018-02-24T23:06:10.822Z,3.40
2018-02-24T23:08:13.975Z,7.43
2018-02-24T23:10:17.924Z,4.07
2018-02-24T23:12:21.093Z,3.43
2018-02-24T23:14:24.252Z,4.13
2018-02-24T23:16:27.429Z,7.10
2018-02-24T23:18:31.345Z,3.60
2018-02-24T23:20:34.490Z,3.13
2018-02-24T23:22:37.662Z,3.97
2018-02-24T23:24:41.580Z,2.97
2018-02-24T23:26:44.995Z,4.23
2018-02-24T23:28:48.144Z,2.67
2018-02-24T23:30:51.645Z,4.30
2018-02-24T23:32:54.791Z,6.93
2018-02-24T23:34:57.949Z,8.43
2018-02-24T23:37:01.894Z,5.35
2018-02-24T23:39:05.061Z,3.33
2018-02-24T23:41:09.718Z,2.70
2018-02-24T23:43:13.677Z,10.37
2018-02-24T23:45:16.856Z,13.83
2018-02-24T23:47:20.790Z,10.07
2018-02-24T23:49:23.942Z,5.03
2018-02-24T23:51:27.649Z,8.32
2018-02-24T23:53:30.801Z,6.57
2018-02-24T23:55:33.984Z,9.23
2018-02-24T23:57:37.132Z,12.77
2018-02-24T23:59:41.048Z,8.00
